Weston Turville, United Kingdom
Current Conditions -  °F | °C
As of 12:20 PM on Thursday 29 Jan 2015 (Local Time) from EGGW Reporting Station
Scattered Clouds Scattered Clouds  
Wind Chill: 32°   Ceiling: Unl
Heat Index: 41°   Visibility: 6mi
Dew Point: 34°   Wind: 18mph
Humidity: 76%   Direction: 240°WSW
Pressure: 28.97"   Gusts: 30mph
Location:  51.79°N, 0.76°W
Report Text: EGGW 291220Z 24016G26KT 9999 SCT021 05/01 Q0981
Loading
Personal Weather Stations






























Interactive Weather Map New forecast layout! Learn more

10-Day Weather Forecast

Advertisements
Track Severe Weather on mobile